Hewlett Harbor, New York
Current Conditions -  °F | °C
As of 12:51 AM on Thursday 18 Dec 2014 (Local Time) from KJFK Reporting Station
Broken Clouds Broken Clouds  
Wind Chill: 34°   Ceiling: 6000
Heat Index: 42°   Visibility: 10mi
Dew Point: 26°   Wind: 18mph
Humidity: 53%   Direction: 280°W
Pressure: 29.89"   Gusts: 23mph
Location:  40.637°N, 73.6912°W
Report Text: KJFK 180551Z 28016G20KT 10SM BKN060 06/M03 A2989 RMK AO2 SLP121 60000 T00561033 10094 20056 58004
Loading
Personal Weather Stations






























Interactive Weather Map New forecast layout! Learn more

10-Day Weather Forecast

Advertisements
Track Severe Weather on mobile